Time;durP1;ratioP1;P1;durP2;ratioP2;P2;SDS_P1;SDS_P2;PMS_P1;PMS_P2;Temp;Humidity;BMP_temperature;BMP_pressure;BME280_temperature;BME280_humidity;BME280_pressure;Samples;Min_cycle;Max_cycle;Signal;HPM_P1;HPM_P2
2022/07/07 00:01:32;;;;;;;8.98;6.55;;;;;;;18.15;80.79;101946.19;5097275;28;20035;-59
2022/07/07 00:03:57;;;;;;;8.40;6.25;;;;;;;18.11;80.88;101946.31;5097605;28;20040;-59
2022/07/07 00:06:23;;;;;;;9.73;6.47;;;;;;;18.09;80.98;101938.41;5097316;28;20119;-59
2022/07/07 00:08:48;;;;;;;12.50;6.53;;;;;;;18.19;80.33;101939.00;5097253;28;20039;-59
2022/07/07 00:11:15;;;;;;;9.20;6.80;;;;;;;18.15;80.79;101934.72;5097102;28;20405;-59
2022/07/07 00:13:40;;;;;;;10.73;6.50;;;;;;;18.08;80.78;101931.34;5097342;28;20036;-59
2022/07/07 00:16:06;;;;;;;11.25;6.88;;;;;;;18.11;80.85;101939.22;5097175;28;20081;-59
2022/07/07 00:18:31;;;;;;;9.80;6.50;;;;;;;18.12;80.91;101933.03;5096872;28;20043;-59
2022/07/07 00:20:56;;;;;;;9.70;6.35;;;;;;;18.09;80.95;101923.38;5096732;28;20024;-60
2022/07/07 00:23:22;;;;;;;10.38;6.80;;;;;;;18.13;80.43;101925.94;5097086;28;20028;-60
2022/07/07 00:25:47;;;;;;;11.40;6.50;;;;;;;18.14;80.66;101925.91;5097668;28;20108;-59
2022/07/07 00:28:12;;;;;;;8.20;5.85;;;;;;;18.16;80.60;101924.09;5096986;28;20136;-60
2022/07/07 00:30:37;;;;;;;9.55;6.30;;;;;;;18.15;80.10;101917.06;5096624;28;20028;-59
2022/07/07 00:33:03;;;;;;;10.30;6.25;;;;;;;18.16;80.49;101915.28;5096762;28;20032;-59
2022/07/07 00:35:28;;;;;;;9.35;6.20;;;;;;;18.15;80.38;101898.50;5096751;28;20464;-59
2022/07/07 00:37:53;;;;;;;7.60;5.78;;;;;;;18.16;80.32;101891.44;5096857;28;20173;-59
2022/07/07 00:40:19;;;;;;;8.23;5.97;;;;;;;18.12;80.89;101903.88;5096886;28;20020;-59
2022/07/07 00:42:44;;;;;;;9.27;5.50;;;;;;;18.14;80.69;101893.25;5096875;28;20427;-59
2022/07/07 00:45:09;;;;;;;8.70;6.03;;;;;;;18.12;80.88;101890.63;5096444;28;20028;-60
2022/07/07 00:47:36;;;;;;;7.22;5.28;;;;;;;18.12;80.69;101893.28;5096355;28;20596;-58
2022/07/07 00:50:02;;;;;;;7.38;4.85;;;;;;;18.12;81.09;101881.81;5096411;28;20039;-58
2022/07/07 00:52:28;;;;;;;7.78;5.38;;;;;;;18.11;80.60;101880.06;5096483;28;20334;-59
2022/07/07 00:54:56;;;;;;;6.72;5.07;;;;;;;18.11;80.73;101886.25;5096391;28;20097;-58
2022/07/07 00:57:22;;;;;;;6.63;5.35;;;;;;;18.08;80.86;101881.91;5096781;28;20032;-59
2022/07/07 00:59:48;;;;;;;7.03;5.35;;;;;;;18.12;80.96;101885.34;5096181;28;20028;-58
2022/07/07 01:02:14;;;;;;;6.40;4.90;;;;;;;18.10;80.97;101873.91;5096367;28;20082;-58
2022/07/07 01:04:39;;;;;;;7.43;5.63;;;;;;;18.07;81.52;101876.63;5096085;28;20028;-59
2022/07/07 01:07:04;;;;;;;6.60;5.28;;;;;;;18.10;81.35;101873.91;5095930;28;20032;-58
2022/07/07 01:09:30;;;;;;;7.07;5.07;;;;;;;18.10;81.12;101884.50;5096330;28;20115;-58
2022/07/07 01:11:57;;;;;;;7.88;4.88;;;;;;;18.20;80.72;101880.66;5096391;28;20036;-58
2022/07/07 01:14:23;;;;;;;6.43;5.07;;;;;;;18.13;81.36;101880.91;5095926;28;20039;-58
2022/07/07 01:16:49;;;;;;;9.07;4.82;;;;;;;18.16;81.14;101879.03;5095732;28;20088;-58
2022/07/07 01:19:16;;;;;;;7.38;4.78;;;;;;;18.16;81.03;101875.53;5095949;28;20035;-58
2022/07/07 01:22:06;;;;;;;7.47;4.50;;;;;;;18.13;81.17;101875.59;5095701;28;20039;-59
2022/07/07 01:24:31;;;;;;;6.68;4.63;;;;;;;18.12;81.43;101880.03;5095879;28;20351;-58
2022/07/07 01:27:09;;;;;;;6.47;5.07;;;;;;;18.16;81.17;101878.19;5095511;28;20117;-58
2022/07/07 01:29:37;;;;;;;8.82;5.32;;;;;;;18.16;81.17;101873.75;5096036;28;20032;-58
2022/07/07 01:32:04;;;;;;;7.85;5.38;;;;;;;18.12;81.72;101873.88;5095576;28;20028;-58
2022/07/07 01:34:30;;;;;;;5.85;4.68;;;;;;;18.12;81.75;101873.88;5095468;28;20039;-58
2022/07/07 01:36:55;;;;;;;6.35;4.43;;;;;;;18.12;81.73;101863.28;5095451;28;20029;-58
2022/07/07 01:39:20;;;;;;;8.40;4.73;;;;;;;18.15;81.78;101857.91;5095368;28;20024;-58
2022/07/07 01:41:46;;;;;;;7.10;4.50;;;;;;;18.15;81.46;101861.41;5095724;28;20586;-58
2022/07/07 01:44:11;;;;;;;6.63;4.45;;;;;;;18.11;82.28;101854.47;5095614;28;20370;-58
2022/07/07 01:46:36;;;;;;;8.20;4.80;;;;;;;18.16;82.45;101854.34;5095485;28;20040;-59
2022/07/07 01:49:01;;;;;;;8.77;4.47;;;;;;;18.12;82.60;101852.69;5095168;28;20130;-57
2022/07/07 01:51:27;;;;;;;6.40;4.38;;;;;;;18.08;82.71;101849.25;5095233;28;20034;-58
2022/07/07 01:53:52;;;;;;;7.32;4.80;;;;;;;18.11;82.31;101846.50;5095378;28;20024;-58
2022/07/07 01:56:17;;;;;;;7.85;4.88;;;;;;;18.11;82.86;101848.28;5094726;28;20043;-57
2022/07/07 01:58:43;;;;;;;7.90;4.93;;;;;;;18.11;82.47;101841.22;5094954;28;20032;-58
2022/07/07 02:01:08;;;;;;;6.72;4.93;;;;;;;18.12;82.93;101842.06;5095284;28;20266;-57
2022/07/07 02:03:33;;;;;;;8.57;5.00;;;;;;;18.09;82.94;101848.31;5095466;28;20371;-58
2022/07/07 02:05:59;;;;;;;8.07;4.95;;;;;;;18.06;83.36;101848.41;5095164;28;20457;-57
2022/07/07 02:08:24;;;;;;;7.60;4.53;;;;;;;18.07;83.75;101851.03;5095094;28;20036;-58
2022/07/07 02:13:33;;;;;;;8.65;4.85;;;;;;;18.09;84.09;101848.31;5095016;28;20046;-59
2022/07/07 02:15:58;;;;;;;8.53;4.87;;;;;;;18.09;83.83;101851.84;5094923;28;20035;-58
2022/07/07 02:18:24;;;;;;;7.40;5.10;;;;;;;18.09;84.13;101843.03;5094959;28;20308;-58
2022/07/07 02:20:49;;;;;;;9.98;4.90;;;;;;;18.07;85.25;101842.19;5094859;28;20105;-58
2022/07/07 02:23:14;;;;;;;6.07;4.88;;;;;;;18.05;84.50;101831.66;5094685;28;20046;-58
2022/07/07 02:25:39;;;;;;;6.85;4.55;;;;;;;18.08;84.19;101838.66;5094485;28;20434;-58
2022/07/07 02:28:05;;;;;;;6.80;4.73;;;;;;;18.11;84.81;101838.56;5095125;28;20076;-58
2022/07/07 02:30:31;;;;;;;7.07;4.28;;;;;;;18.11;84.67;101835.91;5094863;28;20357;-58
2022/07/07 02:32:56;;;;;;;7.07;4.22;;;;;;;18.07;84.86;101832.47;5094784;28;20036;-58
2022/07/07 02:35:22;;;;;;;6.25;4.40;;;;;;;18.10;84.93;101836.81;5094790;28;20032;-58
2022/07/07 02:37:47;;;;;;;5.88;4.20;;;;;;;18.10;85.39;101836.81;5094467;28;20036;-59
2022/07/07 02:40:13;;;;;;;7.55;4.13;;;;;;;18.10;85.30;101834.16;5094993;28;20028;-58
2022/07/07 02:42:38;;;;;;;9.85;4.05;;;;;;;18.14;85.02;101833.19;5094631;28;20090;-58
2022/07/07 02:45:03;;;;;;;5.70;4.18;;;;;;;18.13;85.04;101828.78;5094503;28;20024;-58
2022/07/07 02:47:29;;;;;;;6.10;3.90;;;;;;;18.12;85.08;101836.78;5094778;28;20024;-58
2022/07/07 02:49:54;;;;;;;8.80;4.30;;;;;;;18.11;85.17;101827.97;5094747;28;20028;-58
2022/07/07 02:52:19;;;;;;;5.50;3.87;;;;;;;18.10;85.13;101828.88;5094510;28;20329;-58
2022/07/07 02:54:44;;;;;;;6.57;3.60;;;;;;;18.09;85.61;101820.06;5094926;28;20650;-58
2022/07/07 02:57:10;;;;;;;5.23;3.57;;;;;;;18.11;85.31;101821.78;5094131;28;20032;-59
2022/07/07 02:59:36;;;;;;;7.28;3.58;;;;;;;18.06;85.27;101829.88;5094679;28;20282;-59
2022/07/07 03:02:02;;;;;;;6.85;3.33;;;;;;;18.08;84.89;101828.06;5094671;28;20115;-59
2022/07/07 03:04:27;;;;;;;6.63;3.80;;;;;;;18.09;85.57;101824.50;5094617;28;20059;-59
2022/07/07 03:06:52;;;;;;;6.45;4.00;;;;;;;18.14;85.37;101822.59;5094712;28;20093;-58
2022/07/07 03:09:17;;;;;;;6.25;3.58;;;;;;;18.10;85.72;101834.16;5096018;28;20032;-58
2022/07/07 03:11:43;;;;;;;8.93;3.95;;;;;;;18.11;86.08;101830.63;5098306;28;20451;-59
2022/07/07 03:14:08;;;;;;;7.65;3.50;;;;;;;18.09;87.04;101835.97;5098445;28;20040;-58
2022/07/07 03:16:33;;;;;;;6.90;3.40;;;;;;;18.05;87.82;101846.66;5098229;28;20051;-59
2022/07/07 03:18:59;;;;;;;5.55;3.88;;;;;;;17.95;91.35;101845.22;5098273;28;20269;-59
2022/07/07 03:21:24;;;;;;;7.75;3.95;;;;;;;17.64;93.83;101848.69;5098443;28;20028;-59
2022/07/07 03:23:49;;;;;;;5.03;3.55;;;;;;;17.36;95.24;101845.84;5098182;28;20032;-58
2022/07/07 03:26:15;;;;;;;5.05;3.47;;;;;;;17.14;96.21;101849.09;5098169;28;20044;-59
2022/07/07 03:28:40;;;;;;;4.35;2.92;;;;;;;16.96;95.79;101847.75;5098114;28;20047;-59
2022/07/07 03:31:05;;;;;;;3.70;2.70;;;;;;;16.88;95.92;101847.06;5098164;28;20036;-58
2022/07/07 03:33:30;;;;;;;4.90;2.80;;;;;;;16.94;95.87;101850.44;5098062;28;20274;-58
2022/07/07 03:35:56;;;;;;;5.80;2.73;;;;;;;16.84;97.45;101856.81;5097956;28;20277;-58
2022/07/07 03:38:21;;;;;;;4.67;2.60;;;;;;;16.58;100.00;101864.44;5097711;28;20313;-58
2022/07/07 03:40:46;;;;;;;4.38;2.90;;;;;;;16.44;100.00;101859.47;5097758;28;20296;-59
2022/07/07 03:43:11;;;;;;;4.40;3.20;;;;;;;16.29;100.00;101868.56;5098046;28;20043;-59
2022/07/07 03:45:37;;;;;;;5.18;3.00;;;;;;;16.12;100.00;101859.25;5098048;28;20031;-58
2022/07/07 03:48:02;;;;;;;6.75;3.20;;;;;;;16.06;100.00;101857.63;5097727;28;20039;-58
2022/07/07 03:50:27;;;;;;;4.88;3.25;;;;;;;16.01;100.00;101862.13;5097764;28;20038;-59
2022/07/07 03:52:52;;;;;;;5.00;3.45;;;;;;;15.97;100.00;101855.13;5097602;28;20024;-59
2022/07/07 03:55:18;;;;;;;5.47;3.33;;;;;;;15.99;100.00;101861.25;5097201;28;20031;-58
2022/07/07 03:57:43;;;;;;;6.68;3.85;;;;;;;15.95;100.00;101851.66;5097578;28;20032;-59
2022/07/07 04:00:09;;;;;;;4.90;3.70;;;;;;;15.99;100.00;101856.84;5097301;28;20063;-59
2022/07/07 04:02:35;;;;;;;4.93;3.75;;;;;;;16.00;100.00;101852.44;5097583;28;20067;-59
2022/07/07 04:05:00;;;;;;;5.97;4.00;;;;;;;15.98;100.00;101857.75;5097477;28;20066;-59
2022/07/07 04:07:25;;;;;;;6.07;3.80;;;;;;;16.11;100.00;101850.44;5097258;28;20077;-59
2022/07/07 04:09:51;;;;;;;6.75;3.92;;;;;;;16.20;100.00;101847.63;5097222;28;20024;-59
2022/07/07 04:12:16;;;;;;;5.63;4.03;;;;;;;16.29;100.00;101847.44;5097330;28;20032;-58
2022/07/07 04:14:41;;;;;;;5.15;4.05;;;;;;;16.31;100.00;101835.06;5097166;28;20024;-59
2022/07/07 04:17:06;;;;;;;6.70;4.47;;;;;;;16.38;100.00;101830.53;5096945;28;20148;-58
2022/07/07 04:19:32;;;;;;;5.95;4.35;;;;;;;16.39;100.00;101828.75;5096966;28;20038;-59
2022/07/07 04:21:57;;;;;;;7.07;4.47;;;;;;;16.44;100.00;101834.81;5097016;28;20024;-59
2022/07/07 04:24:22;;;;;;;6.20;4.53;;;;;;;16.50;100.00;101832.03;5096513;28;20054;-59
2022/07/07 04:26:48;;;;;;;6.75;4.85;;;;;;;16.56;100.00;101832.78;5097155;28;20059;-59
2022/07/07 04:29:14;;;;;;;5.05;4.50;;;;;;;16.57;100.00;101834.50;5097015;28;20101;-59
2022/07/07 04:31:44;;;;;;;4.97;4.35;;;;;;;16.57;100.00;101834.50;5096839;28;20044;-58
2022/07/07 04:34:10;;;;;;;5.75;4.20;;;;;;;16.60;100.00;101830.94;5096722;28;20050;-59
2022/07/07 04:36:35;;;;;;;5.40;4.20;;;;;;;16.64;100.00;101827.34;5096475;28;20028;-58
2022/07/07 04:39:01;;;;;;;7.05;4.25;;;;;;;16.73;100.00;101839.47;5096780;28;20035;-58
2022/07/07 04:41:26;;;;;;;5.90;4.10;;;;;;;16.74;100.00;101839.44;5096608;28;20481;-58
2022/07/07 04:43:51;;;;;;;7.43;4.40;;;;;;;16.75;100.00;101851.75;5096904;28;20031;-58
2022/07/07 04:46:16;;;;;;;5.38;4.03;;;;;;;16.74;100.00;101854.44;5096530;28;20149;-58
2022/07/07 04:48:42;;;;;;;6.40;3.80;;;;;;;16.68;100.00;101866.88;5096711;28;20032;-58
2022/07/07 04:51:07;;;;;;;5.13;3.90;;;;;;;16.53;100.00;101861.91;5096460;28;20282;-60
2022/07/07 04:53:32;;;;;;;5.55;3.55;;;;;;;16.42;100.00;101870.97;5096172;28;20289;-58
2022/07/07 04:55:58;;;;;;;4.20;3.80;;;;;;;16.29;100.00;101879.13;5096287;28;20031;-60
2022/07/07 04:58:23;;;;;;;5.40;3.60;;;;;;;16.17;100.00;101874.09;5096172;28;20081;-59
2022/07/07 05:00:48;;;;;;;6.30;3.80;;;;;;;16.09;100.00;101876.03;5096169;28;20320;-59
2022/07/07 05:03:13;;;;;;;4.50;3.47;;;;;;;16.05;100.00;101873.50;5096316;28;20240;-59
2022/07/07 05:05:39;;;;;;;4.15;2.70;;;;;;;15.96;100.00;101875.38;5096291;28;20282;-59
2022/07/07 05:08:04;;;;;;;4.13;2.88;;;;;;;15.94;100.00;101876.31;5095950;28;20039;-57
2022/07/07 05:10:30;;;;;;;5.35;2.20;;;;;;;15.94;100.00;101882.47;5095818;28;20036;-57
2022/07/07 05:12:56;;;;;;;4.60;2.47;;;;;;;15.90;100.00;101875.53;5096141;28;20064;-57
2022/07/07 05:15:21;;;;;;;3.22;1.77;;;;;;;15.92;100.00;101886.06;5096048;28;20031;-57
2022/07/07 05:17:46;;;;;;;3.83;1.90;;;;;;;16.01;100.00;101899.06;5095935;28;20419;-57
2022/07/07 05:20:12;;;;;;;5.65;1.60;;;;;;;16.10;100.00;101898.91;5096021;28;20035;-57
2022/07/07 05:22:37;;;;;;;2.13;1.30;;;;;;;16.10;100.00;101893.63;5095848;28;20407;-58
2022/07/07 05:25:02;;;;;;;3.63;1.77;;;;;;;16.15;100.00;101909.38;5095592;28;20035;-56
2022/07/07 05:27:28;;;;;;;3.67;1.77;;;;;;;16.16;100.00;101904.06;5095830;28;20423;-57
2022/07/07 05:29:53;;;;;;;4.10;1.55;;;;;;;16.20;100.00;101903.09;5096178;28;20149;-57
2022/07/07 05:32:18;;;;;;;5.85;1.90;;;;;;;16.24;100.00;101904.78;5095116;28;20043;-62
2022/07/07 05:34:44;;;;;;;3.42;1.70;;;;;;;16.37;100.00;101915.97;5095833;28;20118;-60
2022/07/07 05:37:09;;;;;;;3.87;1.70;;;;;;;16.47;100.00;101908.72;5094665;28;20040;-60
2022/07/07 05:39:34;;;;;;;4.93;1.52;;;;;;;16.60;100.00;101913.72;5095583;28;20284;-61
2022/07/07 05:42:00;;;;;;;5.70;1.80;;;;;;;16.74;100.00;101924.03;5095372;28;20390;-61
2022/07/07 05:44:25;;;;;;;3.87;1.67;;;;;;;16.89;100.00;101913.13;5095169;28;20031;-62
2022/07/07 05:46:50;;;;;;;5.25;1.52;;;;;;;17.02;100.00;101919.00;5095472;28;20262;-59
2022/07/07 05:49:15;;;;;;;8.97;1.67;;;;;;;17.11;100.00;101928.50;5095205;28;20032;-60
2022/07/07 05:51:41;;;;;;;8.02;1.67;;;;;;;17.20;100.00;101921.22;5095193;28;20274;-61
2022/07/07 05:54:06;;;;;;;6.40;1.48;;;;;;;17.40;100.00;101923.38;5095624;28;20335;-59
2022/07/07 05:56:31;;;;;;;7.28;1.70;;;;;;;17.50;99.74;101932.81;5095028;28;20024;-58
2022/07/07 05:58:56;;;;;;;3.67;1.50;;;;;;;17.46;98.88;101931.19;5095498;28;20024;-59
2022/07/07 06:01:22;;;;;;;5.83;1.70;;;;;;;17.36;98.09;101933.16;5095187;28;20323;-59
2022/07/07 06:03:47;;;;;;;5.70;1.30;;;;;;;17.20;98.39;101944.16;5095153;28;20575;-59
2022/07/07 06:06:12;;;;;;;4.97;1.20;;;;;;;17.08;100.00;101950.59;5095109;28;20262;-61
2022/07/07 06:08:37;;;;;;;5.30;1.50;;;;;;;16.85;100.00;101963.44;5095344;28;20434;-60
2022/07/07 06:11:03;;;;;;;5.30;1.20;;;;;;;16.65;100.00;101958.56;5094944;28;20085;-60
2022/07/07 06:13:28;;;;;;;7.47;1.45;;;;;;;16.61;100.00;101959.53;5095026;28;20035;-59
2022/07/07 06:15:53;;;;;;;5.40;1.23;;;;;;;16.76;99.23;101977.75;5095176;28;20043;-56
2022/07/07 06:18:18;;;;;;;4.78;1.20;;;;;;;16.87;97.11;101983.66;5094937;28;20297;-56
2022/07/07 06:20:44;;;;;;;5.78;1.40;;;;;;;16.98;96.17;101988.72;5094921;28;20064;-56
2022/07/07 06:23:10;;;;;;;5.93;1.23;;;;;;;17.00;96.05;101990.44;5094849;28;20032;-57
2022/07/07 06:25:35;;;;;;;5.15;1.45;;;;;;;17.21;96.87;101998.81;5094816;28;20854;-58
2022/07/07 06:28:01;;;;;;;9.27;1.48;;;;;;;17.39;93.90;101996.59;5095010;28;20048;-57
2022/07/07 06:30:26;;;;;;;6.88;1.50;;;;;;;17.46;92.05;102000.00;5094917;28;20109;-58
2022/07/07 06:32:51;;;;;;;12.80;2.28;;;;;;;17.38;91.03;102000.16;5094967;28;20352;-58
2022/07/07 06:35:19;;;;;;;9.70;1.50;;;;;;;17.45;91.48;101998.25;5094838;28;20350;-57
2022/07/07 06:37:44;;;;;;;9.05;1.60;;;;;;;17.54;88.92;101998.03;5094569;28;20032;-57
2022/07/07 06:40:10;;;;;;;6.80;1.90;;;;;;;17.55;87.61;101999.75;5094613;28;20028;-57
2022/07/07 06:42:36;;;;;;;8.90;1.65;;;;;;;17.62;87.71;102005.78;5095299;28;20278;-58
2022/07/07 06:45:01;;;;;;;13.23;1.75;;;;;;;17.67;85.86;102010.06;5099214;28;20101;-57
2022/07/07 06:47:26;;;;;;;8.13;1.73;;;;;;;17.77;85.08;102012.53;5099096;28;20423;-57
2022/07/07 06:49:51;;;;;;;8.23;1.90;;;;;;;17.80;86.09;102033.63;5099225;28;20089;-56
2022/07/07 06:52:16;;;;;;;9.40;2.28;;;;;;;17.79;85.82;102019.53;5098662;28;20391;-57
2022/07/07 06:54:42;;;;;;;7.50;1.85;;;;;;;17.69;85.86;102029.44;5098651;28;20363;-56
2022/07/07 06:57:08;;;;;;;9.75;1.98;;;;;;;17.37;87.83;102043.41;5098482;28;20031;-57
2022/07/07 06:59:34;;;;;;;7.40;1.50;;;;;;;16.91;94.50;102050.59;5098043;28;20118;-57
2022/07/07 07:01:59;;;;;;;6.10;1.23;;;;;;;16.45;93.62;102038.22;5098338;28;20090;-57
2022/07/07 07:04:24;;;;;;;9.20;1.95;;;;;;;16.23;95.32;102034.25;5098726;28;20110;-57
2022/07/07 07:06:50;;;;;;;5.70;1.30;;;;;;;16.16;97.05;102030.81;5098351;28;20040;-57
2022/07/07 07:09:15;;;;;;;5.18;1.38;;;;;;;16.24;98.05;102039.50;5098797;28;20407;-57
2022/07/07 07:11:40;;;;;;;8.93;1.70;;;;;;;16.47;97.43;102031.13;5098478;28;20036;-57
2022/07/07 07:14:06;;;;;;;6.35;1.52;;;;;;;16.62;93.61;102030.00;5098036;28;20056;-57
2022/07/07 07:16:31;;;;;;;7.93;1.42;;;;;;;16.68;94.20;102037.81;5098330;28;20059;-57
2022/07/07 07:18:56;;;;;;;6.30;1.25;;;;;;;16.77;93.63;102026.22;5097959;28;20089;-57
2022/07/07 07:21:22;;;;;;;5.10;1.33;;;;;;;16.89;92.81;102040.03;5098220;28;20039;-58
2022/07/07 07:23:47;;;;;;;7.20;1.60;;;;;;;17.09;90.79;102044.03;5097702;28;20035;-58
2022/07/07 07:26:13;;;;;;;5.10;1.38;;;;;;;17.10;87.56;102046.66;5097456;28;20066;-58
2022/07/07 07:28:38;;;;;;;4.15;1.17;;;;;;;17.24;88.18;102051.66;5097890;28;20032;-57
2022/07/07 07:31:04;;;;;;;5.93;1.15;;;;;;;17.34;86.56;102051.41;5097881;28;20028;-57
2022/07/07 07:33:30;;;;;;;5.97;1.20;;;;;;;17.54;86.34;102056.25;5097935;28;20427;-57
2022/07/07 07:35:56;;;;;;;5.60;1.10;;;;;;;17.74;84.53;102061.13;5097774;28;20477;-58
2022/07/07 07:38:21;;;;;;;5.28;1.10;;;;;;;18.04;85.48;102054.19;5097923;28;20060;-58
2022/07/07 07:40:47;;;;;;;5.78;1.63;;;;;;;18.28;81.29;102058.88;5097716;28;20028;-57
2022/07/07 07:43:12;;;;;;;6.15;1.38;;;;;;;18.36;81.61;102062.19;5097732;28;20032;-57
2022/07/07 07:45:38;;;;;;;5.78;1.50;;;;;;;18.38;81.25;102070.09;5097757;28;20028;-57
2022/07/07 07:48:04;;;;;;;6.78;1.83;;;;;;;18.31;80.42;102073.84;5097831;28;20036;-60
2022/07/07 07:50:31;;;;;;;5.15;1.25;;;;;;;18.18;80.31;102077.72;5097544;28;20431;-58
2022/07/07 07:52:57;;;;;;;7.68;1.60;;;;;;;18.20;80.58;102078.53;5097460;28;20117;-56
2022/07/07 07:55:23;;;;;;;7.03;1.38;;;;;;;17.87;85.76;102080.22;5097111;28;20090;-57
2022/07/07 07:57:49;;;;;;;6.63;1.50;;;;;;;17.36;89.30;102081.34;5097453;28;20067;-57
2022/07/07 08:00:18;;;;;;;6.00;1.40;;;;;;;17.27;86.28;102100.09;5097656;28;20032;-56
2022/07/07 08:02:44;;;;;;;4.88;1.40;;;;;;;17.09;90.38;102115.47;5097630;28;20070;-54
2022/07/07 08:05:10;;;;;;;4.10;1.00;;;;;;;16.58;92.39;102107.59;5098103;28;20180;-57
2022/07/07 08:07:36;;;;;;;6.22;1.10;;;;;;;16.19;97.40;102094.16;5097630;28;20035;-55
2022/07/07 08:10:02;;;;;;;6.82;1.30;;;;;;;16.26;98.72;102098.47;5097257;28;20028;-55
2022/07/07 08:12:27;;;;;;;4.15;0.90;;;;;;;16.45;96.09;102091.06;5097271;28;20027;-56
2022/07/07 08:14:53;;;;;;;3.78;1.15;;;;;;;16.85;94.51;102090.34;5097886;28;20035;-56
2022/07/07 08:17:18;;;;;;;5.38;1.00;;;;;;;17.20;92.43;102102.88;5097472;28;20028;-55
2022/07/07 08:19:44;;;;;;;3.80;1.00;;;;;;;17.58;89.56;102100.28;5097585;28;20418;-56
2022/07/07 08:22:10;;;;;;;4.53;1.00;;;;;;;17.93;88.65;102106.56;5097095;28;20273;-56
2022/07/07 08:24:36;;;;;;;6.40;1.38;;;;;;;18.12;84.69;102112.31;5097559;28;20106;-56
2022/07/07 08:27:01;;;;;;;3.70;1.02;;;;;;;18.16;84.02;102109.56;5097304;28;20079;-55
2022/07/07 08:29:26;;;;;;;4.93;1.30;;;;;;;18.18;84.15;102107.75;5097291;28;20025;-57
2022/07/07 08:31:51;;;;;;;3.80;1.10;;;;;;;18.15;84.27;102102.50;5097179;28;20306;-58
2022/07/07 08:34:17;;;;;;;5.18;1.40;;;;;;;18.19;85.12;102111.22;5096950;28;20562;-58
2022/07/07 08:36:42;;;;;;;4.47;1.23;;;;;;;18.15;84.87;102114.88;5096777;28;20035;-58
2022/07/07 08:39:07;;;;;;;4.07;1.23;;;;;;;17.99;83.06;102114.38;5097129;28;20023;-57
2022/07/07 08:41:32;;;;;;;4.60;1.50;;;;;;;17.81;86.73;102130.72;5096943;28;20032;-57
2022/07/07 08:43:59;;;;;;;5.38;1.30;;;;;;;17.45;86.98;102129.72;5096960;28;20361;-57
2022/07/07 08:46:24;;;;;;;3.92;1.20;;;;;;;17.13;90.31;102128.59;5097082;28;20122;-56
2022/07/07 08:48:51;;;;;;;5.10;1.30;;;;;;;16.96;92.38;102128.94;5096746;28;20453;-56
2022/07/07 08:51:16;;;;;;;4.28;1.48;;;;;;;16.92;94.90;102127.25;5096455;28;20096;-56
2022/07/07 08:53:44;;;;;;;4.95;1.40;;;;;;;17.25;95.12;102128.34;5096389;28;20122;-56
2022/07/07 08:56:10;;;;;;;5.80;1.52;;;;;;;17.88;92.52;102129.63;5096592;28;20036;-57
2022/07/07 08:58:36;;;;;;;5.93;1.30;;;;;;;18.34;87.31;102127.66;5096501;28;20038;-58
2022/07/07 09:01:08;;;;;;;6.18;1.20;;;;;;;18.52;85.60;102126.31;5096296;28;20035;-56
2022/07/07 09:03:34;;;;;;;5.68;2.05;;;;;;;18.54;82.48;102134.19;5096577;28;20031;-59
2022/07/07 09:05:59;;;;;;;4.75;1.38;;;;;;;18.39;80.67;102135.44;5095320;28;20059;-58
2022/07/07 09:08:28;;;;;;;7.00;1.25;;;;;;;18.14;81.95;102144.94;5095609;28;20117;-58
2022/07/07 09:10:54;;;;;;;7.50;1.40;;;;;;;17.76;85.12;102156.41;5096135;28;20054;-59
2022/07/07 09:13:30;;;;;;;6.10;1.20;;;;;;;17.37;90.68;102151.03;5096183;28;20431;-60
2022/07/07 09:15:57;;;;;;;4.57;1.30;;;;;;;17.11;93.31;102151.56;5096069;28;20024;-60
2022/07/07 09:18:39;;;;;;;7.47;1.70;;;;;;;17.22;92.73;102148.69;5096111;28;20028;-59
2022/07/07 09:21:23;;;;;;;3.72;1.20;;;;;;;17.48;90.12;102158.75;5095797;28;20036;-59
2022/07/07 09:23:53;;;;;;;6.75;1.52;;;;;;;17.84;89.09;102159.75;5095962;28;20055;-59
2022/07/07 09:26:35;;;;;;;5.68;1.33;;;;;;;18.16;86.80;102161.66;5095912;28;20106;-60
2022/07/07 09:29:01;;;;;;;4.22;0.90;;;;;;;18.89;84.44;102160.69;5095473;28;20028;-59
2022/07/07 09:31:54;;;;;;;5.70;1.08;;;;;;;19.78;77.50;102154.59;5095613;28;20430;-60
2022/07/07 09:34:21;;;;;;;6.72;1.33;;;;;;;19.41;75.70;102165.41;5101702;28;20077;-60
2022/07/07 09:39:47;;;;;;;5.93;1.20;;;;;;;19.07;79.24;102172.59;5115972;28;20126;-60
2022/07/07 09:42:30;;;;;;;6.45;1.10;;;;;;;19.27;78.09;102177.34;5115663;28;20541;-61
2022/07/07 09:45:02;;;;;;;4.75;0.90;;;;;;;19.47;76.22;102173.22;5115732;28;20023;-60
2022/07/07 09:47:29;;;;;;;5.82;1.38;;;;;;;19.50;75.91;102182.03;5115138;28;20450;-60
2022/07/07 09:50:06;;;;;;;7.68;1.23;;;;;;;19.57;77.03;102189.75;5116195;28;20035;-59
2022/07/07 09:52:33;;;;;;;3.75;1.00;;;;;;;19.48;75.72;102187.34;5115780;28;20031;-59
2022/07/07 09:55:00;;;;;;;3.78;1.17;;;;;;;19.19;75.78;102189.97;5115653;28;20096;-58
2022/07/07 09:57:25;;;;;;;3.80;1.00;;;;;;;18.89;77.05;102212.88;5115561;28;20031;-59
2022/07/07 09:59:51;;;;;;;2.30;0.90;;;;;;;18.40;80.48;102222.03;5115119;28;20031;-59
2022/07/07 10:02:20;;;;;;;2.90;0.88;;;;;;;17.78;85.24;102229.63;5115319;28;20050;-59
2022/07/07 10:05:01;;;;;;;4.75;1.15;;;;;;;17.54;86.43;102230.94;5115273;28;20070;-59
2022/07/07 10:07:29;;;;;;;3.93;1.10;;;;;;;17.48;88.09;102238.16;5115458;28;20042;-59
2022/07/07 10:09:56;;;;;;;3.30;1.10;;;;;;;17.44;89.02;102212.66;5115567;28;20111;-59
2022/07/07 10:12:27;;;;;;;5.20;1.00;;;;;;;17.77;88.10;102229.66;5115199;28;20063;-61
2022/07/07 10:14:57;;;;;;;3.70;1.40;;;;;;;18.21;86.89;102234.81;5115542;28;20366;-59
2022/07/07 10:17:24;;;;;;;2.15;0.90;;;;;;;18.50;84.98;102231.50;5114607;28;20419;-58
2022/07/07 10:19:50;;;;;;;4.15;0.90;;;;;;;18.48;83.70;102240.41;5115373;28;20028;-60
2022/07/07 10:22:15;;;;;;;4.95;0.90;;;;;;;18.37;84.63;102236.22;5115301;28;20046;-60
2022/07/07 10:24:41;;;;;;;6.40;1.20;;;;;;;18.21;83.80;102237.47;5114864;28;20027;-61
2022/07/07 10:27:07;;;;;;;5.60;1.05;;;;;;;18.18;84.68;102242.00;5114719;28;20043;-59
2022/07/07 10:29:41;;;;;;;4.00;1.20;;;;;;;18.12;85.39;102250.94;5115282;28;20044;-60
2022/07/07 10:32:35;;;;;;;4.45;1.10;;;;;;;18.01;85.33;102253.81;5115093;28;20362;-59
2022/07/07 10:35:11;;;;;;;5.43;1.10;;;;;;;17.93;85.52;102254.91;5114848;28;20496;-59
2022/07/07 10:37:42;;;;;;;3.75;1.00;;;;;;;18.01;85.21;102268.84;5115028;28;20535;-60
2022/07/07 10:40:11;;;;;;;5.15;1.45;;;;;;;18.34;85.63;102251.34;5115006;28;20059;-60
2022/07/07 10:43:05;;;;;;;3.55;1.10;;;;;;;18.76;83.93;102268.88;5115137;28;20111;-61
2022/07/07 10:45:31;;;;;;;4.45;1.10;;;;;;;19.22;81.60;102262.38;5115097;28;20088;-59
2022/07/07 10:47:58;;;;;;;3.05;1.00;;;;;;;19.48;77.57;102251.94;5115158;28;20032;-58
2022/07/07 10:50:30;;;;;;;3.40;1.13;;;;;;;19.55;77.24;102262.44;5115038;28;20047;-60
2022/07/07 10:52:55;;;;;;;2.60;1.05;;;;;;;19.48;76.76;102264.34;5114710;28;20039;-59
2022/07/07 10:55:21;;;;;;;5.00;1.40;;;;;;;19.10;77.79;102263.59;5115162;28;20024;-60
2022/07/07 10:57:48;;;;;;;4.50;1.20;;;;;;;18.57;82.11;102283.47;5114758;28;20023;-59
2022/07/07 11:00:15;;;;;;;6.13;1.40;;;;;;;17.93;87.38;102292.84;5114909;28;20039;-59
2022/07/07 11:02:47;;;;;;;4.47;1.20;;;;;;;17.76;87.68;102287.03;5114864;28;20118;-58
2022/07/07 11:05:12;;;;;;;3.47;1.20;;;;;;;17.83;87.24;102287.78;5115538;28;20019;-59
2022/07/07 11:07:38;;;;;;;5.37;1.17;;;;;;;18.01;88.32;102300.63;5114763;28;20362;-59
2022/07/07 11:10:08;;;;;;;4.22;0.98;;;;;;;18.28;85.09;102302.69;5114755;28;20081;-58
2022/07/07 11:12:44;;;;;;;2.80;1.30;;;;;;;18.70;83.27;102300.00;5114999;28;20036;-59
2022/07/07 11:15:25;;;;;;;3.20;1.20;;;;;;;19.06;82.29;102307.03;5114853;28;20045;-59
2022/07/07 11:18:09;;;;;;;4.07;1.53;;;;;;;19.36;80.31;102304.53;5114734;28;20032;-59
2022/07/07 11:20:35;;;;;;;4.10;1.40;;;;;;;19.52;79.39;102299.69;5114737;28;20262;-59
2022/07/07 11:23:13;;;;;;;6.70;1.90;;;;;;;19.72;78.64;102298.25;5114612;28;20031;-59
2022/07/07 11:25:39;;;;;;;6.72;1.77;;;;;;;19.67;77.28;102305.44;5114835;28;20403;-60
2022/07/07 11:28:06;;;;;;;5.53;1.90;;;;;;;19.32;78.52;102318.78;5114667;28;20060;-60